Empire, MI (49630)

4:17 PM EST on February 01, 2015 (GMT -0500)
APRSWXNET Glen Arbor MI US | Change Station
CLOSE
Current Station
Personal Weather Station
Location: Glen Arbor, MI
Elevation: 590 ft
Nearby Weather Stations

Elev 590 ft 44.89 °N, 86.01 °W | Updated 34 minutes ago

Overcast
Overcast
15 °F
Feels Like 15 °F
N
0
Wind Variable Wind from ESE
Gusts 0.0 mph

Today
High -- | Low -- °F
--% Chance of Precip.
Yesterday
High -- | Low -- °F
Precip. -- in
8:03 AM 5:52 PM
Waxing Gibbous, 96% visible
Pressure 30.09 in
Visibility 10.0 miles
Clouds Overcast 4100 ft
Windchill 15 °F
Dew Point 6 °F
Humidity 66%
Rainfall 0.00 in
Snow Depth Not available.
UV 0 out of 12
Pollen .10 out of 12
Air Quality Not available.
Flu Activity Not available.
METAR KFKS 012055Z AUTO 05010G17KT 10SM OVC041 M11/M17 A3009 RMK AO2 T11151166

More Conditions Fewer Conditions

Pressure 30.09 in
Visibility 10.0 miles
Clouds Overcast 4100 ft
Windchill 15 °F
Dew Point 6 °F
Humidity 66%
Rainfall 0.00 in
Snow Depth Not available.
UV 0 out of 12
Pollen .10 out of 12
Air Quality Not available.
Flu Activity Not available.
METAR KFKS 012055Z AUTO 05010G17KT 10SM OVC041 M11/M17 A3009 RMK AO2 T11151166

More Conditions Fewer Conditions

Nowcast | as of 4:00 PM EST on February 1, 2015

At 5 PM...cloudy. Temperature 9 above. Northeast winds 15 mph. Wind chill 8 below. At 7 PM...cloudy. Temperature 8 above. Northeast winds 21 mph. Wind chill 13 below. At 9 PM...cloudy. Temperature 10 above. Northeast winds 21 mph. Wind chill 11 below. At 11 PM...cloudy. Temperature 10 above. Northeast winds 21 mph. Wind chill 10 below.

×

10-Day Weather Forecast

Almanac

Astronomy

Feb. 01, 2015 Rise Set
Actual Time
Civil Twilight
Nautical Twilight
Astronomical Twilight
Moon
Length of Visible Light
Length of Day
Tomorrow will be .
, % of the Moon is Illuminated

Today's Extremes

State Highs State Lows

Community

WunderPhotos

Upload Photos

1,792,535 photos uploaded!

WunderBlogs® & News

Nearby

Air Quality

  Air Quality AQ Index Pollutant
Not available.

Snow Depth

Station Depth Elevation

Earthquake Activity

City Distance Mag. Time & Date
Minimum magnitude displayed is 2.5.

Coastal Water Temperatures

Place Temperature

Nearby Weather Stations